sensor_id;sensor_type;location;lat;lon;timestamp;pressure;altitude;pressure_sealevel;temperature;humidity
62418;BME280;48456;54.242;10.280;2023-01-28T00:00:36;102800.41;;;-0.94;100.00
62418;BME280;48456;54.242;10.280;2023-01-28T00:03:02;102792.59;;;-0.94;100.00
62418;BME280;48456;54.242;10.280;2023-01-28T00:05:29;102789.22;;;-0.93;100.00
62418;BME280;48456;54.242;10.280;2023-01-28T00:07:55;102802.22;;;-0.93;100.00
62418;BME280;48456;54.242;10.280;2023-01-28T00:10:23;102803.78;;;-0.95;100.00
62418;BME280;48456;54.242;10.280;2023-01-28T00:12:49;102807.97;;;-0.97;100.00
62418;BME280;48456;54.242;10.280;2023-01-28T00:15:16;102805.34;;;-0.97;100.00
62418;BME280;48456;54.242;10.280;2023-01-28T00:17:42;102810.81;;;-0.94;100.00
62418;BME280;48456;54.242;10.280;2023-01-28T00:20:09;102799.84;;;-0.89;100.00
62418;BME280;48456;54.242;10.280;2023-01-28T00:22:35;102794.75;;;-0.88;100.00
62418;BME280;48456;54.242;10.280;2023-01-28T00:25:01;102799.59;;;-0.93;100.00
62418;BME280;48456;54.242;10.280;2023-01-28T00:27:28;102795.28;;;-1.04;100.00
62418;BME280;48456;54.242;10.280;2023-01-28T00:29:56;102794.72;;;-1.12;100.00
62418;BME280;48456;54.242;10.280;2023-01-28T00:32:23;102803.63;;;-1.20;100.00
62418;BME280;48456;54.242;10.280;2023-01-28T00:34:49;102798.06;;;-1.25;100.00
62418;BME280;48456;54.242;10.280;2023-01-28T00:37:16;102793.16;;;-1.32;100.00
62418;BME280;48456;54.242;10.280;2023-01-28T00:39:43;102801.97;;;-1.42;100.00
62418;BME280;48456;54.242;10.280;2023-01-28T00:42:09;102794.22;;;-1.52;100.00
62418;BME280;48456;54.242;10.280;2023-01-28T00:44:35;102786.41;;;-1.64;100.00
62418;BME280;48456;54.242;10.280;2023-01-28T00:47:02;102782.97;;;-1.75;100.00
62418;BME280;48456;54.242;10.280;2023-01-28T00:49:28;102788.22;;;-1.86;100.00
62418;BME280;48456;54.242;10.280;2023-01-28T00:51:56;102788.03;;;-1.99;100.00
62418;BME280;48456;54.242;10.280;2023-01-28T00:54:22;102792.34;;;-2.10;100.00
62418;BME280;48456;54.242;10.280;2023-01-28T00:56:49;102781.50;;;-2.16;100.00
62418;BME280;48456;54.242;10.280;2023-01-28T00:59:15;102779.47;;;-2.20;100.00
62418;BME280;48456;54.242;10.280;2023-01-28T01:01:41;102787.50;;;-2.28;100.00
62418;BME280;48456;54.242;10.280;2023-01-28T01:04:08;102781.94;;;-2.32;100.00
62418;BME280;48456;54.242;10.280;2023-01-28T01:06:38;102782.91;;;-2.42;100.00
62418;BME280;48456;54.242;10.280;2023-01-28T01:09:06;102785.13;;;-2.47;100.00
62418;BME280;48456;54.242;10.280;2023-01-28T01:11:33;102777.63;;;-2.54;100.00
62418;BME280;48456;54.242;10.280;2023-01-28T01:14:00;102784.78;;;-2.62;100.00
62418;BME280;48456;54.242;10.280;2023-01-28T01:16:29;102789.47;;;-2.68;100.00
62418;BME280;48456;54.242;10.280;2023-01-28T01:18:57;102789.06;;;-2.73;100.00
62418;BME280;48456;54.242;10.280;2023-01-28T01:21:27;102781.03;;;-2.76;100.00
62418;BME280;48456;54.242;10.280;2023-01-28T01:23:53;102793.13;;;-2.77;100.00
62418;BME280;48456;54.242;10.280;2023-01-28T01:26:20;102790.25;;;-2.80;100.00
62418;BME280;48456;54.242;10.280;2023-01-28T01:28:46;102801.53;;;-2.90;100.00
62418;BME280;48456;54.242;10.280;2023-01-28T01:31:14;102796.63;;;-2.97;100.00
62418;BME280;48456;54.242;10.280;2023-01-28T01:33:41;102784.19;;;-3.01;100.00
62418;BME280;48456;54.242;10.280;2023-01-28T01:36:09;102780.44;;;-3.05;100.00
62418;BME280;48456;54.242;10.280;2023-01-28T01:38:35;102773.47;;;-3.06;100.00
62418;BME280;48456;54.242;10.280;2023-01-28T01:41:02;102774.00;;;-3.10;100.00
62418;BME280;48456;54.242;10.280;2023-01-28T01:46:14;102776.31;;;-3.13;100.00
62418;BME280;48456;54.242;10.280;2023-01-28T01:48:43;102772.69;;;-3.15;100.00
62418;BME280;48456;54.242;10.280;2023-01-28T01:51:11;102770.88;;;-3.16;100.00
62418;BME280;48456;54.242;10.280;2023-01-28T01:53:39;102769.97;;;-3.17;100.00
62418;BME280;48456;54.242;10.280;2023-01-28T01:56:06;102780.06;;;-3.20;100.00
62418;BME280;48456;54.242;10.280;2023-01-28T01:58:35;102771.50;;;-3.19;100.00
62418;BME280;48456;54.242;10.280;2023-01-28T02:01:04;102773.75;;;-3.23;100.00
62418;BME280;48456;54.242;10.280;2023-01-28T02:03:38;102775.66;;;-3.31;100.00
62418;BME280;48456;54.242;10.280;2023-01-28T02:06:06;102773.59;;;-3.35;100.00
62418;BME280;48456;54.242;10.280;2023-01-28T02:08:33;102768.28;;;-3.37;100.00
62418;BME280;48456;54.242;10.280;2023-01-28T02:11:04;102778.41;;;-3.40;100.00
62418;BME280;48456;54.242;10.280;2023-01-28T02:13:32;102780.72;;;-3.43;100.00
62418;BME280;48456;54.242;10.280;2023-01-28T02:16:00;102777.06;;;-3.45;100.00
62418;BME280;48456;54.242;10.280;2023-01-28T02:18:28;102776.19;;;-3.46;100.00
62418;BME280;48456;54.242;10.280;2023-01-28T02:33:33;102777.97;;;-3.66;100.00
62418;BME280;48456;54.242;10.280;2023-01-28T02:36:02;102777.81;;;-3.67;100.00
62418;BME280;48456;54.242;10.280;2023-01-28T02:38:32;102773.44;;;-3.68;100.00
62418;BME280;48456;54.242;10.280;2023-01-28T02:41:04;102768.25;;;-3.68;100.00
62418;BME280;48456;54.242;10.280;2023-01-28T02:45:59;102762.16;;;-3.69;100.00
62418;BME280;48456;54.242;10.280;2023-01-28T02:48:45;102761.28;;;-3.69;100.00
62418;BME280;48456;54.242;10.280;2023-01-28T02:51:15;102760.50;;;-3.68;100.00
62418;BME280;48456;54.242;10.280;2023-01-28T02:53:53;102754.41;;;-3.69;100.00
62418;BME280;48456;54.242;10.280;2023-01-28T02:56:31;102750.66;;;-3.72;100.00
62418;BME280;48456;54.242;10.280;2023-01-28T02:59:02;102758.16;;;-3.75;100.00
62418;BME280;48456;54.242;10.280;2023-01-28T03:01:53;102763.09;;;-3.79;100.00
62418;BME280;48456;54.242;10.280;2023-01-28T03:04:26;102754.78;;;-3.85;100.00
62418;BME280;48456;54.242;10.280;2023-01-28T03:06:56;102756.22;;;-3.88;100.00
62418;BME280;48456;54.242;10.280;2023-01-28T03:09:23;102762.78;;;-3.92;100.00
62418;BME280;48456;54.242;10.280;2023-01-28T03:14:40;102757.72;;;-4.01;100.00
62418;BME280;48456;54.242;10.280;2023-01-28T03:17:37;102756.94;;;-4.00;100.00
62418;BME280;48456;54.242;10.280;2023-01-28T03:20:24;102749.59;;;-3.95;100.00
62418;BME280;48456;54.242;10.280;2023-01-28T03:23:11;102757.59;;;-3.92;100.00
62418;BME280;48456;54.242;10.280;2023-01-28T03:25:58;102762.25;;;-3.98;100.00
62418;BME280;48456;54.242;10.280;2023-01-28T03:28:44;102756.66;;;-4.03;100.00
62418;BME280;48456;54.242;10.280;2023-01-28T03:31:30;102762.91;;;-4.01;100.00
62418;BME280;48456;54.242;10.280;2023-01-28T03:34:15;102762.91;;;-4.01;100.00
62418;BME280;48456;54.242;10.280;2023-01-28T03:37:01;102766.50;;;-3.99;100.00
62418;BME280;48456;54.242;10.280;2023-01-28T03:39:28;102770.00;;;-3.98;100.00
62418;BME280;48456;54.242;10.280;2023-01-28T03:42:05;102762.13;;;-4.00;100.00
62418;BME280;48456;54.242;10.280;2023-01-28T03:44:32;102760.16;;;-4.02;100.00
62418;BME280;48456;54.242;10.280;2023-01-28T03:47:20;102754.22;;;-4.01;100.00
62418;BME280;48456;54.242;10.280;2023-01-28T03:49:47;102752.28;;;-4.04;100.00
62418;BME280;48456;54.242;10.280;2023-01-28T03:52:17;102748.91;;;-4.03;100.00
62418;BME280;48456;54.242;10.280;2023-01-28T03:54:45;102753.19;;;-4.03;100.00
62418;BME280;48456;54.242;10.280;2023-01-28T03:57:16;102748.03;;;-4.03;100.00
62418;BME280;48456;54.242;10.280;2023-01-28T03:59:43;102752.91;;;-4.07;100.00
62418;BME280;48456;54.242;10.280;2023-01-28T04:02:12;102754.88;;;-4.04;100.00
62418;BME280;48456;54.242;10.280;2023-01-28T04:04:39;102756.28;;;-4.08;100.00
62418;BME280;48456;54.242;10.280;2023-01-28T04:07:06;102759.66;;;-4.09;100.00
62418;BME280;48456;54.242;10.280;2023-01-28T04:09:34;102756.28;;;-4.08;100.00
62418;BME280;48456;54.242;10.280;2023-01-28T04:12:01;102751.91;;;-4.09;100.00
62418;BME280;48456;54.242;10.280;2023-01-28T04:14:27;102740.50;;;-4.11;100.00
62418;BME280;48456;54.242;10.280;2023-01-28T04:16:54;102754.22;;;-4.12;100.00
62418;BME280;48456;54.242;10.280;2023-01-28T04:19:21;102749.69;;;-4.14;100.00
62418;BME280;48456;54.242;10.280;2023-01-28T04:21:47;102760.03;;;-4.14;100.00
62418;BME280;48456;54.242;10.280;2023-01-28T04:24:14;102757.28;;;-4.16;100.00
62418;BME280;48456;54.242;10.280;2023-01-28T04:26:41;102769.16;;;-4.18;100.00
62418;BME280;48456;54.242;10.280;2023-01-28T04:29:07;102769.66;;;-4.22;100.00
62418;BME280;48456;54.242;10.280;2023-01-28T04:31:34;102764.25;;;-4.25;100.00
62418;BME280;48456;54.242;10.280;2023-01-28T04:34:00;102764.75;;;-4.29;100.00
62418;BME280;48456;54.242;10.280;2023-01-28T04:36:26;102757.22;;;-4.37;100.00
62418;BME280;48456;54.242;10.280;2023-01-28T04:38:53;102756.94;;;-4.40;100.00
62418;BME280;48456;54.242;10.280;2023-01-28T04:41:19;102751.47;;;-4.43;100.00
62418;BME280;48456;54.242;10.280;2023-01-28T04:43:45;102742.06;;;-4.43;100.00
62418;BME280;48456;54.242;10.280;2023-01-28T04:46:15;102749.81;;;-4.43;100.00
62418;BME280;48456;54.242;10.280;2023-01-28T04:48:41;102737.69;;;-4.44;100.00
62418;BME280;48456;54.242;10.280;2023-01-28T04:51:08;102740.25;;;-4.44;100.00
62418;BME280;48456;54.242;10.280;2023-01-28T04:53:34;102742.72;;;-4.45;100.00
62418;BME280;48456;54.242;10.280;2023-01-28T04:56:00;102733.00;;;-4.48;100.00
62418;BME280;48456;54.242;10.280;2023-01-28T04:58:27;102741.78;;;-4.46;100.00
62418;BME280;48456;54.242;10.280;2023-01-28T05:00:56;102761.81;;;-4.43;100.00
62418;BME280;48456;54.242;10.280;2023-01-28T05:03:23;102754.31;;;-4.50;100.00
62418;BME280;48456;54.242;10.280;2023-01-28T05:05:50;102747.34;;;-4.51;100.00
62418;BME280;48456;54.242;10.280;2023-01-28T05:08:16;102733.38;;;-4.53;100.00
62418;BME280;48456;54.242;10.280;2023-01-28T05:10:43;102736.31;;;-4.59;100.00
62418;BME280;48456;54.242;10.280;2023-01-28T05:13:10;102734.38;;;-4.62;100.00
62418;BME280;48456;54.242;10.280;2023-01-28T05:15:36;102730.75;;;-4.64;100.00
62418;BME280;48456;54.242;10.280;2023-01-28T05:18:02;102722.88;;;-4.65;100.00
62418;BME280;48456;54.242;10.280;2023-01-28T05:20:29;102714.34;;;-4.64;100.00
62418;BME280;48456;54.242;10.280;2023-01-28T05:22:55;102711.91;;;-4.63;100.00
62418;BME280;48456;54.242;10.280;2023-01-28T05:25:21;102710.34;;;-4.61;100.00
62418;BME280;48456;54.242;10.280;2023-01-28T05:27:51;102706.72;;;-4.63;100.00
62418;BME280;48456;54.242;10.280;2023-01-28T05:30:18;102704.00;;;-4.64;100.00
62418;BME280;48456;54.242;10.280;2023-01-28T05:32:44;102707.50;;;-4.64;100.00
62418;BME280;48456;54.242;10.280;2023-01-28T05:35:11;102693.69;;;-4.64;100.00
62418;BME280;48456;54.242;10.280;2023-01-28T05:37:37;102687.97;;;-4.71;100.00
62418;BME280;48456;54.242;10.280;2023-01-28T05:40:04;102698.69;;;-4.66;100.00
62418;BME280;48456;54.242;10.280;2023-01-28T05:42:30;102700.50;;;-4.65;100.00
62418;BME280;48456;54.242;10.280;2023-01-28T05:44:56;102687.88;;;-4.62;100.00
62418;BME280;48456;54.242;10.280;2023-01-28T05:47:23;102695.47;;;-4.63;100.00
62418;BME280;48456;54.242;10.280;2023-01-28T05:49:49;102689.44;;;-4.64;100.00
62418;BME280;48456;54.242;10.280;2023-01-28T05:52:15;102679.75;;;-4.66;100.00
62418;BME280;48456;54.242;10.280;2023-01-28T05:54:42;102677.09;;;-4.77;100.00
62418;BME280;48456;54.242;10.280;2023-01-28T05:57:08;102675.66;;;-4.84;100.00
62418;BME280;48456;54.242;10.280;2023-01-28T05:59:34;102676.81;;;-4.80;100.00
62418;BME280;48456;54.242;10.280;2023-01-28T06:02:01;102671.50;;;-4.82;100.00
62418;BME280;48456;54.242;10.280;2023-01-28T06:04:27;102679.53;;;-4.78;100.00
62418;BME280;48456;54.242;10.280;2023-01-28T06:06:53;102674.72;;;-4.84;100.00
62418;BME280;48456;54.242;10.280;2023-01-28T06:09:20;102682.84;;;-4.90;100.00
62418;BME280;48456;54.242;10.280;2023-01-28T06:11:46;102696.13;;;-4.96;100.00
62418;BME280;48456;54.242;10.280;2023-01-28T06:14:12;102697.78;;;-4.96;100.00
62418;BME280;48456;54.242;10.280;2023-01-28T06:16:39;102695.78;;;-4.90;100.00
62418;BME280;48456;54.242;10.280;2023-01-28T06:19:05;102703.75;;;-4.87;100.00
62418;BME280;48456;54.242;10.280;2023-01-28T06:21:32;102708.16;;;-4.86;100.00
62418;BME280;48456;54.242;10.280;2023-01-28T06:23:58;102709.72;;;-4.88;100.00
62418;BME280;48456;54.242;10.280;2023-01-28T06:26:25;102722.75;;;-4.86;100.00
62418;BME280;48456;54.242;10.280;2023-01-28T06:28:51;102719.03;;;-4.79;100.00
62418;BME280;48456;54.242;10.280;2023-01-28T06:31:17;102718.75;;;-4.83;100.00
62418;BME280;48456;54.242;10.280;2023-01-28T06:33:44;102726.38;;;-4.84;100.00
62418;BME280;48456;54.242;10.280;2023-01-28T06:36:10;102739.03;;;-4.87;100.00
62418;BME280;48456;54.242;10.280;2023-01-28T06:38:36;102742.09;;;-4.91;100.00
62418;BME280;48456;54.242;10.280;2023-01-28T06:41:03;102748.00;;;-4.92;100.00
62418;BME280;48456;54.242;10.280;2023-01-28T06:43:29;102742.25;;;-4.90;100.00
62418;BME280;48456;54.242;10.280;2023-01-28T06:45:56;102744.03;;;-4.89;100.00
62418;BME280;48456;54.242;10.280;2023-01-28T06:48:23;102738.75;;;-4.90;100.00
62418;BME280;48456;54.242;10.280;2023-01-28T06:50:50;102746.81;;;-4.96;100.00
62418;BME280;48456;54.242;10.280;2023-01-28T06:53:16;102737.41;;;-4.96;100.00
62418;BME280;48456;54.242;10.280;2023-01-28T06:55:43;102733.78;;;-4.98;100.00
62418;BME280;48456;54.242;10.280;2023-01-28T06:58:10;102736.38;;;-4.98;100.00
62418;BME280;48456;54.242;10.280;2023-01-28T07:00:36;102731.84;;;-5.00;100.00
62418;BME280;48456;54.242;10.280;2023-01-28T07:03:03;102735.81;;;-5.04;100.00
62418;BME280;48456;54.242;10.280;2023-01-28T07:05:30;102736.06;;;-5.01;100.00
62418;BME280;48456;54.242;10.280;2023-01-28T07:07:57;102734.41;;;-5.00;100.00
62418;BME280;48456;54.242;10.280;2023-01-28T07:10:23;102743.72;;;-5.02;100.00
62418;BME280;48456;54.242;10.280;2023-01-28T07:12:49;102755.22;;;-4.99;100.00
62418;BME280;48456;54.242;10.280;2023-01-28T07:15:16;102759.75;;;-4.96;100.00
62418;BME280;48456;54.242;10.280;2023-01-28T07:17:42;102746.19;;;-4.93;100.00
62418;BME280;48456;54.242;10.280;2023-01-28T07:20:10;102738.16;;;-4.97;100.00
62418;BME280;48456;54.242;10.280;2023-01-28T07:22:39;102741.38;;;-4.99;100.00
62418;BME280;48456;54.242;10.280;2023-01-28T07:25:06;102748.09;;;-5.01;100.00
62418;BME280;48456;54.242;10.280;2023-01-28T07:27:33;102740.63;;;-4.98;100.00
62418;BME280;48456;54.242;10.280;2023-01-28T07:29:59;102747.88;;;-4.94;100.00
62418;BME280;48456;54.242;10.280;2023-01-28T07:32:25;102763.63;;;-4.91;100.00
62418;BME280;48456;54.242;10.280;2023-01-28T07:34:52;102763.16;;;-4.87;100.00
62418;BME280;48456;54.242;10.280;2023-01-28T07:37:19;102762.50;;;-4.84;100.00
62418;BME280;48456;54.242;10.280;2023-01-28T07:39:45;102754.75;;;-4.84;100.00
62418;BME280;48456;54.242;10.280;2023-01-28T07:42:12;102747.31;;;-4.81;100.00
62418;BME280;48456;54.242;10.280;2023-01-28T07:44:38;102751.50;;;-4.73;100.00
62418;BME280;48456;54.242;10.280;2023-01-28T07:47:05;102748.59;;;-4.57;100.00
62418;BME280;48456;54.242;10.280;2023-01-28T07:49:32;102751.25;;;-4.46;100.00
62418;BME280;48456;54.242;10.280;2023-01-28T07:51:59;102747.16;;;-4.34;100.00
62418;BME280;48456;54.242;10.280;2023-01-28T07:54:25;102754.16;;;-4.22;100.00
62418;BME280;48456;54.242;10.280;2023-01-28T07:56:52;102760.53;;;-4.08;100.00
62418;BME280;48456;54.242;10.280;2023-01-28T07:59:18;102743.88;;;-4.01;100.00
62418;BME280;48456;54.242;10.280;2023-01-28T08:01:44;102754.00;;;-3.94;100.00
62418;BME280;48456;54.242;10.280;2023-01-28T08:04:11;102748.59;;;-3.87;100.00
62418;BME280;48456;54.242;10.280;2023-01-28T08:06:37;102764.88;;;-3.78;100.00
62418;BME280;48456;54.242;10.280;2023-01-28T08:09:04;102756.47;;;-3.65;100.00
62418;BME280;48456;54.242;10.280;2023-01-28T08:11:31;102766.22;;;-3.52;100.00
62418;BME280;48456;54.242;10.280;2023-01-28T08:13:58;102764.16;;;-3.35;100.00
62418;BME280;48456;54.242;10.280;2023-01-28T08:16:25;102766.06;;;-3.22;100.00
62418;BME280;48456;54.242;10.280;2023-01-28T08:18:52;102770.75;;;-3.07;100.00
62418;BME280;48456;54.242;10.280;2023-01-28T08:21:19;102771.50;;;-2.98;100.00
62418;BME280;48456;54.242;10.280;2023-01-28T08:23:45;102784.41;;;-2.88;100.00
62418;BME280;48456;54.242;10.280;2023-01-28T08:26:11;102786.09;;;-2.78;100.00
62418;BME280;48456;54.242;10.280;2023-01-28T08:28:38;102782.59;;;-2.68;100.00
62418;BME280;48456;54.242;10.280;2023-01-28T08:31:04;102783.19;;;-2.60;100.00
62418;BME280;48456;54.242;10.280;2023-01-28T08:33:31;102781.38;;;-2.51;100.00
62418;BME280;48456;54.242;10.280;2023-01-28T08:35:57;102781.06;;;-2.43;100.00
62418;BME280;48456;54.242;10.280;2023-01-28T08:38:23;102781.84;;;-2.34;100.00
62418;BME280;48456;54.242;10.280;2023-01-28T08:40:50;102788.66;;;-2.24;100.00
62418;BME280;48456;54.242;10.280;2023-01-28T08:43:20;102784.88;;;-2.17;100.00
62418;BME280;48456;54.242;10.280;2023-01-28T08:45:46;102785.63;;;-2.08;100.00
62418;BME280;48456;54.242;10.280;2023-01-28T08:48:14;102801.00;;;-1.99;100.00
62418;BME280;48456;54.242;10.280;2023-01-28T08:50:41;102800.97;;;-1.89;100.00
62418;BME280;48456;54.242;10.280;2023-01-28T08:53:11;102800.63;;;-1.81;100.00
62418;BME280;48456;54.242;10.280;2023-01-28T08:55:37;102798.53;;;-1.75;100.00
62418;BME280;48456;54.242;10.280;2023-01-28T08:58:05;102797.78;;;-1.62;100.00
62418;BME280;48456;54.242;10.280;2023-01-28T09:00:32;102791.88;;;-1.49;100.00
62418;BME280;48456;54.242;10.280;2023-01-28T09:02:58;102804.69;;;-1.40;100.00
62418;BME280;48456;54.242;10.280;2023-01-28T09:05:25;102793.97;;;-1.33;100.00
62418;BME280;48456;54.242;10.280;2023-01-28T09:07:51;102788.59;;;-1.24;100.00
62418;BME280;48456;54.242;10.280;2023-01-28T09:10:17;102784.63;;;-1.19;100.00
62418;BME280;48456;54.242;10.280;2023-01-28T09:12:45;102773.34;;;-1.20;100.00
62418;BME280;48456;54.242;10.280;2023-01-28T09:15:12;102769.28;;;-1.16;100.00
62418;BME280;48456;54.242;10.280;2023-01-28T09:17:38;102770.53;;;-1.11;100.00
62418;BME280;48456;54.242;10.280;2023-01-28T09:20:05;102766.16;;;-1.12;100.00
62418;BME280;48456;54.242;10.280;2023-01-28T09:22:31;102758.34;;;-1.12;100.00
62418;BME280;48456;54.242;10.280;2023-01-28T09:24:58;102760.16;;;-1.11;100.00
62418;BME280;48456;54.242;10.280;2023-01-28T09:27:24;102761.16;;;-1.09;100.00
62418;BME280;48456;54.242;10.280;2023-01-28T09:29:50;102756.75;;;-1.10;100.00
62418;BME280;48456;54.242;10.280;2023-01-28T09:32:17;102757.31;;;-1.14;100.00
62418;BME280;48456;54.242;10.280;2023-01-28T09:34:43;102751.66;;;-1.20;100.00
62418;BME280;48456;54.242;10.280;2023-01-28T09:37:10;102754.16;;;-1.22;100.00
62418;BME280;48456;54.242;10.280;2023-01-28T09:39:37;102755.63;;;-1.13;100.00
62418;BME280;48456;54.242;10.280;2023-01-28T09:42:08;102739.00;;;-1.15;100.00
62418;BME280;48456;54.242;10.280;2023-01-28T09:47:08;102745.81;;;-1.06;100.00
62418;BME280;48456;54.242;10.280;2023-01-28T09:49:39;102751.25;;;-1.02;100.00
62418;BME280;48456;54.242;10.280;2023-01-28T09:52:09;102759.41;;;-0.98;100.00
62418;BME280;48456;54.242;10.280;2023-01-28T09:54:42;102762.44;;;-0.92;100.00
62418;BME280;48456;54.242;10.280;2023-01-28T09:57:16;102751.13;;;-0.92;100.00
62418;BME280;48456;54.242;10.280;2023-01-28T09:59:45;102753.84;;;-0.90;100.00
62418;BME280;48456;54.242;10.280;2023-01-28T10:02:32;102771.72;;;-0.83;100.00
62418;BME280;48456;54.242;10.280;2023-01-28T10:08:00;102757.03;;;-0.83;100.00
62418;BME280;48456;54.242;10.280;2023-01-28T10:10:29;102737.38;;;-0.79;100.00
62418;BME280;48456;54.242;10.280;2023-01-28T10:13:05;102737.16;;;-0.70;100.00
62418;BME280;48456;54.242;10.280;2023-01-28T10:15:52;102737.16;;;-0.70;100.00
62418;BME280;48456;54.242;10.280;2023-01-28T10:18:24;102721.56;;;-0.70;100.00
62418;BME280;48456;54.242;10.280;2023-01-28T10:20:55;102707.84;;;-0.80;100.00
62418;BME280;48456;54.242;10.280;2023-01-28T10:23:28;102698.50;;;-0.89;100.00
62418;BME280;48456;54.242;10.280;2023-01-28T10:25:57;102701.88;;;-0.90;100.00
62418;BME280;48456;54.242;10.280;2023-01-28T10:28:27;102695.78;;;-0.91;100.00
62418;BME280;48456;54.242;10.280;2023-01-28T10:30:54;102698.28;;;-0.93;100.00
62418;BME280;48456;54.242;10.280;2023-01-28T10:35:50;102705.97;;;-0.70;100.00
62418;BME280;48456;54.242;10.280;2023-01-28T10:38:19;102684.25;;;-0.71;100.00
62418;BME280;48456;54.242;10.280;2023-01-28T10:40:46;102682.88;;;-0.66;100.00
62418;BME280;48456;54.242;10.280;2023-01-28T10:43:17;102682.53;;;-0.58;100.00
62418;BME280;48456;54.242;10.280;2023-01-28T10:48:31;102669.66;;;-0.57;100.00
62418;BME280;48456;54.242;10.280;2023-01-28T10:50:59;102666.81;;;-0.60;100.00
62418;BME280;48456;54.242;10.280;2023-01-28T10:56:00;102662.16;;;-0.52;100.00
62418;BME280;48456;54.242;10.280;2023-01-28T10:58:28;102661.00;;;-0.44;100.00
62418;BME280;48456;54.242;10.280;2023-01-28T11:00:56;102649.03;;;-0.42;100.00
62418;BME280;48456;54.242;10.280;2023-01-28T11:03:22;102641.78;;;-0.34;100.00
62418;BME280;48456;54.242;10.280;2023-01-28T11:05:53;102640.97;;;-0.33;100.00
62418;BME280;48456;54.242;10.280;2023-01-28T11:08:20;102654.41;;;-0.27;100.00
62418;BME280;48456;54.242;10.280;2023-01-28T11:10:47;102654.84;;;-0.20;100.00
62418;BME280;48456;54.242;10.280;2023-01-28T11:13:18;102647.94;;;-0.20;100.00
62418;BME280;48456;54.242;10.280;2023-01-28T11:15:45;102659.78;;;-0.11;100.00
62418;BME280;48456;54.242;10.280;2023-01-28T11:18:14;102663.25;;;0.01;100.00
62418;BME280;48456;54.242;10.280;2023-01-28T11:20:47;102669.50;;;0.17;100.00
62418;BME280;48456;54.242;10.280;2023-01-28T11:23:17;102656.91;;;0.23;100.00
62418;BME280;48456;54.242;10.280;2023-01-28T11:25:43;102642.03;;;0.34;100.00
62418;BME280;48456;54.242;10.280;2023-01-28T11:28:14;102641.28;;;0.23;100.00
62418;BME280;48456;54.242;10.280;2023-01-28T11:30:42;102646.53;;;0.36;100.00
62418;BME280;48456;54.242;10.280;2023-01-28T11:35:41;102634.00;;;0.44;100.00
62418;BME280;48456;54.242;10.280;2023-01-28T11:38:17;102635.16;;;0.48;100.00
62418;BME280;48456;54.242;10.280;2023-01-28T11:40:51;102643.06;;;0.49;100.00
62418;BME280;48456;54.242;10.280;2023-01-28T11:43:22;102625.47;;;0.33;100.00
62418;BME280;48456;54.242;10.280;2023-01-28T11:48:43;102622.41;;;0.39;100.00
62418;BME280;48456;54.242;10.280;2023-01-28T12:05:15;102625.97;;;0.28;100.00
62418;BME280;48456;54.242;10.280;2023-01-28T12:07:15;102613.34;;;0.20;100.00
62418;BME280;48456;54.242;10.280;2023-01-28T12:09:52;102608.84;;;0.18;100.00
62418;BME280;48456;54.242;10.280;2023-01-28T12:15:16;102590.13;;;0.23;100.00
62418;BME280;48456;54.242;10.280;2023-01-28T12:20:31;102576.06;;;0.60;100.00
62418;BME280;48456;54.242;10.280;2023-01-28T12:23:18;102579.72;;;0.91;100.00
62418;BME280;48456;54.242;10.280;2023-01-28T12:36:25;102575.63;;;0.54;100.00
62418;BME280;48456;54.242;10.280;2023-01-28T12:38:59;102580.94;;;0.56;100.00
62418;BME280;48456;54.242;10.280;2023-01-28T12:41:30;102576.66;;;0.56;100.00
62418;BME280;48456;54.242;10.280;2023-01-28T12:44:01;102570.63;;;0.57;100.00
62418;BME280;48456;54.242;10.280;2023-01-28T12:46:35;102571.03;;;0.50;100.00
62418;BME280;48456;54.242;10.280;2023-01-28T12:49:05;102572.66;;;0.48;100.00
62418;BME280;48456;54.242;10.280;2023-01-28T12:51:48;102573.63;;;0.50;100.00
62418;BME280;48456;54.242;10.280;2023-01-28T12:56:52;102581.22;;;0.47;100.00
62418;BME280;48456;54.242;10.280;2023-01-28T13:07:49;102576.66;;;0.43;100.00
62418;BME280;48456;54.242;10.280;2023-01-28T13:10:00;102575.03;;;0.45;100.00
62418;BME280;48456;54.242;10.280;2023-01-28T13:12:29;102575.94;;;0.45;100.00
62418;BME280;48456;54.242;10.280;2023-01-28T13:14:57;102575.94;;;0.45;100.00
62418;BME280;48456;54.242;10.280;2023-01-28T13:17:28;102579.25;;;0.43;100.00
62418;BME280;48456;54.242;10.280;2023-01-28T13:19:54;102581.16;;;0.45;100.00
62418;BME280;48456;54.242;10.280;2023-01-28T13:22:29;102587.75;;;0.40;100.00
62418;BME280;48456;54.242;10.280;2023-01-28T13:24:56;102585.06;;;0.38;100.00
62418;BME280;48456;54.242;10.280;2023-01-28T13:27:24;102588.44;;;0.37;100.00
62418;BME280;48456;54.242;10.280;2023-01-28T13:32:54;102593.53;;;0.36;100.00
62418;BME280;48456;54.242;10.280;2023-01-28T13:35:29;102581.44;;;0.36;100.00
62418;BME280;48456;54.242;10.280;2023-01-28T13:37:56;102575.63;;;0.41;100.00
62418;BME280;48456;54.242;10.280;2023-01-28T13:40:24;102579.75;;;0.37;100.00
62418;BME280;48456;54.242;10.280;2023-01-28T13:42:59;102583.34;;;0.39;100.00
62418;BME280;48456;54.242;10.280;2023-01-28T13:45:26;102583.44;;;0.41;100.00
62418;BME280;48456;54.242;10.280;2023-01-28T13:47:54;102564.03;;;0.49;100.00
62418;BME280;48456;54.242;10.280;2023-01-28T13:50:24;102551.50;;;0.57;100.00
62418;BME280;48456;54.242;10.280;2023-01-28T13:52:54;102545.50;;;0.58;100.00
62418;BME280;48456;54.242;10.280;2023-01-28T13:55:36;102545.59;;;0.59;100.00
62418;BME280;48456;54.242;10.280;2023-01-28T13:58:23;102529.16;;;0.47;100.00
62418;BME280;48456;54.242;10.280;2023-01-28T14:00:59;102518.84;;;0.48;100.00